createdAt,value
2023-01-31T00:01:38.688Z,101049.00
2023-01-31T00:04:11.394Z,101058.00
2023-01-31T00:06:40.986Z,101068.00
2023-01-31T00:09:10.697Z,101044.00
2023-01-31T00:11:39.352Z,101044.00
2023-01-31T00:14:10.690Z,101049.00
2023-01-31T00:16:39.238Z,101049.00
2023-01-31T00:19:08.530Z,101062.00
2023-01-31T00:21:36.400Z,101058.00
2023-01-31T00:24:05.641Z,101066.00
2023-01-31T00:26:35.266Z,101072.00
2023-01-31T00:29:05.527Z,101077.00
2023-01-31T00:31:35.352Z,101076.00
2023-01-31T00:34:03.865Z,101086.00
2023-01-31T00:36:35.886Z,101075.00
2023-01-31T00:39:05.928Z,101069.00
2023-01-31T00:41:34.604Z,101082.00
2023-01-31T00:44:02.562Z,101085.00
2023-01-31T00:46:30.357Z,101085.00
2023-01-31T00:48:58.662Z,101081.00
2023-01-31T00:51:27.644Z,101086.00
2023-01-31T00:53:56.837Z,101087.00
2023-01-31T00:56:25.818Z,101094.00
2023-01-31T00:58:53.912Z,101087.00
2023-01-31T01:01:23.693Z,101107.00
2023-01-31T01:03:51.740Z,101115.00
2023-01-31T01:06:20.061Z,101107.00
2023-01-31T01:08:48.061Z,101094.00
2023-01-31T01:11:20.207Z,101108.00
2023-01-31T01:13:48.449Z,101113.00
2023-01-31T01:16:18.246Z,101110.00
2023-01-31T01:18:48.133Z,101132.00
2023-01-31T01:21:18.807Z,101118.00
2023-01-31T01:23:47.497Z,101141.00
2023-01-31T01:26:17.559Z,101147.00
2023-01-31T01:28:45.380Z,101131.00
2023-01-31T01:31:16.309Z,101143.00
2023-01-31T01:33:44.989Z,101145.00
2023-01-31T01:36:16.119Z,101145.00
2023-01-31T01:38:45.320Z,101135.00
2023-01-31T01:41:14.050Z,101136.00
2023-01-31T01:43:45.221Z,101142.00
2023-01-31T01:46:16.183Z,101142.00
2023-01-31T01:48:48.103Z,101140.00
2023-01-31T01:51:19.360Z,101153.00
2023-01-31T01:53:51.600Z,101148.00
2023-01-31T01:56:23.414Z,101153.00
2023-01-31T01:59:00.618Z,101151.00
2023-01-31T02:01:33.408Z,101163.00
2023-01-31T02:04:01.314Z,101164.00
2023-01-31T02:06:29.467Z,101172.00
2023-01-31T02:08:57.288Z,101164.00
2023-01-31T02:11:27.451Z,101163.00
2023-01-31T02:14:00.970Z,101174.00
2023-01-31T02:16:29.211Z,101156.00
2023-01-31T02:18:58.054Z,101164.00
2023-01-31T02:22:02.798Z,101165.00
2023-01-31T02:25:08.613Z,101163.00
2023-01-31T02:28:01.233Z,101155.00
2023-01-31T02:30:55.219Z,101157.00
2023-01-31T02:33:31.721Z,101154.00
2023-01-31T02:36:08.874Z,101162.00
2023-01-31T02:38:49.634Z,101164.00
2023-01-31T02:41:23.887Z,101164.00
2023-01-31T02:44:12.945Z,101172.00
2023-01-31T02:47:00.828Z,101186.00
2023-01-31T02:49:52.370Z,101148.00
2023-01-31T02:52:42.744Z,101145.00
2023-01-31T02:55:38.923Z,101209.00
2023-01-31T02:58:14.340Z,101190.00
2023-01-31T03:00:56.923Z,101199.00
2023-01-31T03:03:40.728Z,101149.00
2023-01-31T03:07:05.026Z,101140.00
2023-01-31T03:09:59.956Z,101181.00
2023-01-31T03:17:06.207Z,101156.00
2023-01-31T03:20:31.268Z,101157.00
2023-01-31T03:26:20.242Z,101196.00
2023-01-31T03:29:44.969Z,101189.00
2023-01-31T03:36:19.026Z,101132.00
2023-01-31T03:39:28.955Z,101183.00
2023-01-31T03:42:40.383Z,101167.00
2023-01-31T03:45:35.089Z,101161.00
2023-01-31T03:48:24.367Z,101156.00
2023-01-31T03:51:44.541Z,101125.00
2023-01-31T03:55:09.272Z,101126.00
2023-01-31T03:58:06.233Z,101089.00
2023-01-31T04:01:03.056Z,101163.00
2023-01-31T04:04:06.869Z,101148.00
2023-01-31T04:10:06.194Z,101150.00
2023-01-31T04:12:47.106Z,101109.00
2023-01-31T04:15:43.756Z,101135.00
2023-01-31T04:21:45.549Z,101145.00
2023-01-31T04:24:44.604Z,101157.00
2023-01-31T04:31:13.327Z,101117.00
2023-01-31T04:34:39.462Z,101144.00
2023-01-31T04:38:12.479Z,101146.00
2023-01-31T04:41:20.677Z,101138.00
2023-01-31T04:44:20.907Z,101124.00
2023-01-31T04:47:06.132Z,101103.00
2023-01-31T04:49:46.082Z,101168.00
2023-01-31T04:52:28.622Z,101159.00
2023-01-31T04:55:21.025Z,101167.00
2023-01-31T05:00:55.749Z,101116.00
2023-01-31T05:03:47.876Z,101166.00
2023-01-31T05:06:43.045Z,101167.00
2023-01-31T05:09:24.860Z,101124.00
2023-01-31T05:12:13.227Z,101164.00
2023-01-31T05:14:55.186Z,101113.00
2023-01-31T05:17:30.089Z,101130.00
2023-01-31T05:20:02.115Z,101153.00
2023-01-31T05:22:35.217Z,101145.00
2023-01-31T05:25:09.627Z,101167.00
2023-01-31T05:27:44.999Z,101166.00
2023-01-31T05:30:27.324Z,101157.00
2023-01-31T05:33:12.575Z,101158.00
2023-01-31T05:39:20.446Z,101129.00
2023-01-31T05:41:55.247Z,101168.00
2023-01-31T05:44:27.421Z,101150.00
2023-01-31T05:47:00.475Z,101118.00
2023-01-31T05:49:37.391Z,101167.00
2023-01-31T05:52:15.590Z,101122.00
2023-01-31T05:54:45.206Z,101157.00
2023-01-31T05:57:14.696Z,101124.00
2023-01-31T05:59:42.838Z,101167.00
2023-01-31T06:02:14.537Z,101136.00
2023-01-31T06:07:48.517Z,101139.00
2023-01-31T06:10:28.329Z,101151.00
2023-01-31T06:12:56.507Z,101134.00
2023-01-31T06:15:27.410Z,101088.00
2023-01-31T06:18:02.619Z,101121.00
2023-01-31T06:20:38.942Z,101109.00
2023-01-31T06:23:09.988Z,101144.00
2023-01-31T06:25:40.063Z,101129.00
2023-01-31T06:28:20.127Z,101147.00
2023-01-31T06:30:48.018Z,101137.00
2023-01-31T06:33:16.030Z,101131.00
2023-01-31T06:35:43.907Z,101134.00
2023-01-31T06:38:13.188Z,101127.00
2023-01-31T06:40:42.207Z,101122.00
2023-01-31T06:43:12.578Z,101086.00
2023-01-31T06:45:40.553Z,101066.00
2023-01-31T06:48:12.960Z,101079.00
2023-01-31T06:50:43.354Z,101132.00
2023-01-31T06:53:12.024Z,101103.00
2023-01-31T06:55:40.604Z,101120.00
2023-01-31T06:58:20.744Z,101120.00
2023-01-31T07:00:59.940Z,101064.00
2023-01-31T07:07:13.449Z,101094.00
2023-01-31T07:09:54.114Z,101063.00
2023-01-31T07:12:32.434Z,101086.00
2023-01-31T07:18:27.992Z,101065.00
2023-01-31T07:24:12.942Z,101010.00
2023-01-31T07:26:58.861Z,101041.00
2023-01-31T07:38:01.724Z,100990.00
2023-01-31T07:40:32.416Z,101022.00
2023-01-31T07:43:05.408Z,101016.00
2023-01-31T07:45:37.826Z,100977.00
2023-01-31T07:48:09.851Z,100992.00
2023-01-31T07:50:44.411Z,101010.00
2023-01-31T07:53:16.203Z,100957.00
2023-01-31T07:55:47.904Z,101004.00
2023-01-31T07:58:20.544Z,100961.00
2023-01-31T08:01:06.687Z,100994.00
2023-01-31T08:03:46.654Z,100968.00
2023-01-31T08:06:30.555Z,101009.00
2023-01-31T08:09:07.555Z,100958.00
2023-01-31T08:11:43.214Z,101002.00
2023-01-31T08:14:14.740Z,100947.00
2023-01-31T08:16:50.393Z,100948.00
2023-01-31T08:19:32.925Z,100989.00
2023-01-31T08:22:04.748Z,100982.00
2023-01-31T08:25:13.227Z,100968.00
2023-01-31T08:27:52.692Z,100944.00
2023-01-31T08:30:38.761Z,100924.00
2023-01-31T08:33:24.924Z,100971.00
2023-01-31T08:36:21.867Z,100957.00
2023-01-31T08:39:14.219Z,100929.00
2023-01-31T08:41:48.128Z,100972.00
2023-01-31T08:44:39.533Z,100972.00
2023-01-31T08:47:15.833Z,100947.00
2023-01-31T08:50:25.735Z,100931.00
2023-01-31T08:53:17.866Z,100952.00
2023-01-31T08:55:48.498Z,100941.00
2023-01-31T08:58:25.778Z,100925.00
2023-01-31T09:00:54.398Z,100886.00
2023-01-31T09:03:36.061Z,100899.00
2023-01-31T09:06:17.467Z,100917.00
2023-01-31T09:08:57.129Z,100915.00
2023-01-31T09:11:36.050Z,100874.00
2023-01-31T09:14:26.057Z,100884.00
2023-01-31T09:17:01.489Z,100906.00
2023-01-31T09:19:32.423Z,100902.00
2023-01-31T09:22:00.356Z,100905.00
2023-01-31T09:24:28.615Z,100898.00
2023-01-31T09:26:56.520Z,100899.00
2023-01-31T09:29:25.735Z,100907.00
2023-01-31T09:31:54.237Z,100914.00
2023-01-31T09:34:22.869Z,100900.00
2023-01-31T09:36:50.620Z,100920.00
2023-01-31T09:39:18.367Z,100918.00
2023-01-31T09:41:48.279Z,100898.00
2023-01-31T09:44:20.251Z,100894.00
2023-01-31T09:46:55.608Z,100889.00
2023-01-31T09:49:27.165Z,100891.00
2023-01-31T09:51:58.563Z,100897.00
2023-01-31T09:54:30.862Z,100878.00
2023-01-31T09:57:09.583Z,100875.00
2023-01-31T09:59:44.819Z,100861.00
2023-01-31T10:02:29.722Z,100854.00
2023-01-31T10:05:12.482Z,100861.00
2023-01-31T10:07:47.055Z,100863.00
2023-01-31T10:10:22.551Z,100857.00
2023-01-31T10:12:55.828Z,100837.00
2023-01-31T10:15:31.610Z,100856.00
2023-01-31T10:18:03.388Z,100845.00
2023-01-31T10:20:37.220Z,100844.00
2023-01-31T10:23:11.950Z,100846.00
2023-01-31T10:25:44.643Z,100848.00
2023-01-31T10:28:16.375Z,100829.00
2023-01-31T10:30:49.518Z,100825.00
2023-01-31T10:33:26.064Z,100831.00
2023-01-31T10:35:56.759Z,100820.00
2023-01-31T10:38:29.019Z,100820.00
2023-01-31T10:41:02.973Z,100811.00
2023-01-31T10:43:40.727Z,100795.00
2023-01-31T10:46:12.700Z,100802.00
2023-01-31T10:48:47.317Z,100801.00
2023-01-31T10:51:30.860Z,100781.00
2023-01-31T10:54:20.047Z,100773.00
2023-01-31T10:56:49.390Z,100766.00
2023-01-31T10:59:24.100Z,100753.00
2023-01-31T11:01:52.323Z,100765.00
2023-01-31T11:04:28.876Z,100754.00
2023-01-31T11:06:59.392Z,100739.00
2023-01-31T11:09:31.384Z,100743.00
2023-01-31T11:12:00.797Z,100742.00
2023-01-31T11:14:29.948Z,100735.00
2023-01-31T11:17:01.761Z,100737.00
2023-01-31T11:19:37.097Z,100724.00
2023-01-31T11:22:05.599Z,100735.00
2023-01-31T11:24:35.286Z,100715.00
2023-01-31T11:27:05.619Z,100719.00
2023-01-31T11:29:36.826Z,100729.00
2023-01-31T11:32:07.814Z,100718.00
2023-01-31T11:34:37.552Z,100725.00
2023-01-31T11:37:13.659Z,100701.00
2023-01-31T11:39:41.515Z,100701.00
2023-01-31T11:42:17.306Z,100691.00
2023-01-31T11:44:56.695Z,100693.00
2023-01-31T11:47:32.171Z,100703.00
2023-01-31T11:50:02.234Z,100699.00
2023-01-31T11:52:32.139Z,100678.00
2023-01-31T11:55:02.197Z,100675.00
2023-01-31T11:57:32.976Z,100690.00
2023-01-31T12:00:02.606Z,100678.00
2023-01-31T12:02:37.482Z,100672.00
2023-01-31T12:05:16.181Z,100656.00
2023-01-31T12:07:46.756Z,100644.00
2023-01-31T12:10:31.579Z,100644.00
2023-01-31T12:13:16.730Z,100660.00
2023-01-31T12:15:51.158Z,100655.00
2023-01-31T12:18:28.903Z,100653.00
2023-01-31T12:21:07.248Z,100643.00
2023-01-31T12:23:46.556Z,100640.00
2023-01-31T12:26:22.094Z,100649.00
2023-01-31T12:29:11.894Z,100651.00
2023-01-31T12:31:58.162Z,100635.00
2023-01-31T12:34:59.552Z,100639.00
2023-01-31T12:37:38.519Z,100648.00
2023-01-31T12:40:27.646Z,100649.00
2023-01-31T12:42:59.314Z,100630.00
2023-01-31T12:45:41.895Z,100653.00
2023-01-31T12:48:44.636Z,100639.00
2023-01-31T12:51:36.206Z,100638.00
2023-01-31T12:54:23.308Z,100642.00
2023-01-31T12:57:03.830Z,100641.00
2023-01-31T12:59:44.204Z,100640.00
2023-01-31T13:02:40.106Z,100639.00
2023-01-31T13:05:28.229Z,100651.00
2023-01-31T13:08:01.615Z,100645.00
2023-01-31T13:10:40.326Z,100655.00
2023-01-31T13:13:16.824Z,100646.00
2023-01-31T13:15:49.776Z,100636.00
2023-01-31T13:18:19.656Z,100651.00
2023-01-31T13:20:51.529Z,100651.00
2023-01-31T13:23:22.293Z,100634.00
2023-01-31T13:25:56.999Z,100644.00
2023-01-31T13:28:29.319Z,100639.00
2023-01-31T13:30:59.742Z,100627.00
2023-01-31T13:33:33.405Z,100626.00
2023-01-31T13:36:25.265Z,100641.00
2023-01-31T13:38:53.667Z,100639.00
2023-01-31T13:41:29.497Z,100645.00
2023-01-31T13:43:58.048Z,100631.00
2023-01-31T13:46:30.713Z,100627.00
2023-01-31T13:49:02.097Z,100641.00
2023-01-31T13:51:36.914Z,100634.00
2023-01-31T13:54:13.224Z,100628.00
2023-01-31T13:56:43.105Z,100630.00
2023-01-31T13:59:11.862Z,100616.00
2023-01-31T14:01:46.876Z,100605.00
2023-01-31T14:04:30.667Z,100601.00
2023-01-31T14:07:16.662Z,100583.00
2023-01-31T14:09:46.660Z,100592.00
2023-01-31T14:12:36.542Z,100608.00
2023-01-31T14:15:25.885Z,100589.00
2023-01-31T14:18:02.663Z,100604.00
2023-01-31T14:20:32.195Z,100598.00
2023-01-31T14:23:30.938Z,100605.00
2023-01-31T14:25:58.869Z,100594.00
2023-01-31T14:28:28.332Z,100590.00
2023-01-31T14:30:57.146Z,100600.00
2023-01-31T14:33:30.435Z,100591.00
2023-01-31T14:36:32.354Z,100580.00
2023-01-31T14:39:42.126Z,100589.00
2023-01-31T14:42:28.337Z,100569.00
2023-01-31T14:45:14.148Z,100574.00
2023-01-31T14:47:56.964Z,100564.00
2023-01-31T14:50:36.760Z,100576.00
2023-01-31T14:53:17.820Z,100575.00
2023-01-31T14:56:07.399Z,100557.00
2023-01-31T14:58:36.100Z,100562.00
2023-01-31T15:01:08.507Z,100579.00
2023-01-31T15:03:38.949Z,100591.00
2023-01-31T15:06:10.381Z,100588.00
2023-01-31T15:08:47.841Z,100571.00
2023-01-31T15:11:42.418Z,100574.00
2023-01-31T15:14:34.215Z,100589.00
2023-01-31T15:17:07.201Z,100569.00
2023-01-31T15:19:43.899Z,100575.00
2023-01-31T15:22:12.718Z,100583.00
2023-01-31T15:24:44.476Z,100588.00
2023-01-31T15:27:19.493Z,100571.00
2023-01-31T15:29:55.191Z,100577.00
2023-01-31T15:32:25.743Z,100579.00
2023-01-31T15:37:32.345Z,100568.00
2023-01-31T15:40:04.306Z,100563.00
2023-01-31T15:42:34.822Z,100571.00
2023-01-31T15:45:23.887Z,100573.00
2023-01-31T15:47:59.521Z,100548.00
2023-01-31T15:50:28.819Z,100546.00
2023-01-31T15:52:57.204Z,100568.00
2023-01-31T15:55:25.188Z,100559.00
2023-01-31T15:57:57.530Z,100553.00
2023-01-31T16:00:28.132Z,100557.00
2023-01-31T16:03:01.347Z,100561.00
2023-01-31T16:05:32.581Z,100565.00
2023-01-31T16:08:01.328Z,100569.00
2023-01-31T16:10:30.504Z,100570.00
2023-01-31T16:13:01.506Z,100582.00
2023-01-31T16:15:31.453Z,100573.00
2023-01-31T16:18:03.066Z,100590.00
2023-01-31T16:20:43.824Z,100589.00
2023-01-31T16:23:30.038Z,100592.00
2023-01-31T16:26:04.333Z,100600.00
2023-01-31T16:28:38.841Z,100590.00
2023-01-31T16:31:09.104Z,100601.00
2023-01-31T16:33:37.650Z,100627.00
2023-01-31T16:36:14.357Z,100626.00
2023-01-31T16:38:44.020Z,100640.00
2023-01-31T16:41:12.930Z,100649.00
2023-01-31T16:43:43.730Z,100628.00
2023-01-31T16:46:36.820Z,100626.00
2023-01-31T16:49:06.728Z,100600.00
2023-01-31T16:51:45.047Z,100612.00
2023-01-31T16:54:18.903Z,100601.00
2023-01-31T16:56:48.226Z,100600.00
2023-01-31T16:59:51.233Z,100612.00
2023-01-31T17:02:26.345Z,100602.00
2023-01-31T17:04:56.529Z,100606.00
2023-01-31T17:07:27.720Z,100618.00
2023-01-31T17:09:57.596Z,100627.00
2023-01-31T17:12:28.515Z,100616.00
2023-01-31T17:15:00.802Z,100627.00
2023-01-31T17:17:34.199Z,100625.00
2023-01-31T17:20:02.135Z,100613.00
2023-01-31T17:22:29.791Z,100597.00
2023-01-31T17:24:57.437Z,100616.00
2023-01-31T17:27:25.190Z,100614.00
2023-01-31T17:29:52.944Z,100610.00
2023-01-31T17:32:22.321Z,100603.00
2023-01-31T17:34:50.023Z,100601.00
2023-01-31T17:37:26.795Z,100614.00
2023-01-31T17:39:59.625Z,100614.00
2023-01-31T17:42:27.286Z,100614.00
2023-01-31T17:44:55.015Z,100613.00
2023-01-31T17:47:26.586Z,100604.00
2023-01-31T17:49:54.779Z,100611.00
2023-01-31T17:52:22.510Z,100618.00
2023-01-31T17:54:50.249Z,100607.00
2023-01-31T17:57:17.937Z,100590.00
2023-01-31T17:59:45.580Z,100605.00
2023-01-31T18:02:13.268Z,100604.00
2023-01-31T18:04:42.274Z,100604.00
2023-01-31T18:07:09.950Z,100613.00
2023-01-31T18:09:37.645Z,100615.00
2023-01-31T18:12:05.766Z,100620.00
2023-01-31T18:14:33.611Z,100615.00
2023-01-31T18:17:01.334Z,100615.00
2023-01-31T18:19:29.392Z,100610.00
2023-01-31T18:21:59.514Z,100620.00
2023-01-31T18:24:27.235Z,100628.00
2023-01-31T18:26:56.827Z,100623.00
2023-01-31T18:29:26.339Z,100639.00
2023-01-31T18:31:57.460Z,100640.00
2023-01-31T18:34:25.672Z,100644.00
2023-01-31T18:36:53.338Z,100645.00
2023-01-31T18:39:23.516Z,100659.00
2023-01-31T18:41:51.273Z,100648.00
2023-01-31T18:44:18.940Z,100630.00
2023-01-31T18:46:46.941Z,100643.00
2023-01-31T18:49:14.694Z,100644.00
2023-01-31T18:51:42.760Z,100641.00
2023-01-31T18:54:10.613Z,100649.00
2023-01-31T18:56:39.830Z,100658.00
2023-01-31T18:59:07.554Z,100645.00
2023-01-31T19:01:35.259Z,100644.00
2023-01-31T19:04:02.935Z,100655.00
2023-01-31T19:06:35.261Z,100666.00
2023-01-31T19:09:04.535Z,100664.00
2023-01-31T19:11:32.427Z,100649.00
2023-01-31T19:14:06.510Z,100645.00
2023-01-31T19:16:37.339Z,100661.00
2023-01-31T19:19:05.045Z,100670.00
2023-01-31T19:21:34.799Z,100671.00
2023-01-31T19:24:03.985Z,100670.00
2023-01-31T19:26:33.969Z,100672.00
2023-01-31T19:29:03.895Z,100671.00
2023-01-31T19:31:33.524Z,100668.00
2023-01-31T19:34:02.924Z,100671.00
2023-01-31T19:36:32.679Z,100655.00
2023-01-31T19:39:02.013Z,100672.00
2023-01-31T19:41:30.418Z,100665.00
2023-01-31T19:43:59.777Z,100680.00
2023-01-31T19:46:31.239Z,100686.00
2023-01-31T19:49:00.181Z,100691.00
2023-01-31T19:51:28.912Z,100696.00
2023-01-31T19:53:59.949Z,100691.00
2023-01-31T19:56:27.881Z,100717.00
2023-01-31T19:58:55.659Z,100686.00
2023-01-31T20:01:23.740Z,100699.00
2023-01-31T20:03:54.875Z,100693.00
2023-01-31T20:06:25.526Z,100699.00
2023-01-31T20:08:54.826Z,100700.00
2023-01-31T20:11:22.906Z,100700.00
2023-01-31T20:13:51.194Z,100696.00
2023-01-31T20:16:19.814Z,100703.00
2023-01-31T20:18:47.542Z,100700.00
2023-01-31T20:21:18.351Z,100705.00
2023-01-31T20:23:46.364Z,100703.00
2023-01-31T20:26:15.267Z,100706.00
2023-01-31T20:28:43.438Z,100701.00
2023-01-31T20:31:13.274Z,100705.00
2023-01-31T20:33:41.370Z,100695.00
2023-01-31T20:36:09.742Z,100711.00
2023-01-31T20:38:40.003Z,100708.00
2023-01-31T20:41:09.195Z,100699.00
2023-01-31T20:43:37.580Z,100695.00
2023-01-31T20:46:07.747Z,100690.00
2023-01-31T20:48:35.635Z,100686.00
2023-01-31T20:51:03.445Z,100696.00
2023-01-31T20:53:31.914Z,100692.00
2023-01-31T20:56:02.385Z,100680.00
2023-01-31T20:58:33.098Z,100677.00
2023-01-31T21:01:03.435Z,100682.00
2023-01-31T21:03:32.638Z,100687.00
2023-01-31T21:06:00.734Z,100684.00
2023-01-31T21:08:29.835Z,100689.00
2023-01-31T21:10:59.262Z,100685.00
2023-01-31T21:13:28.975Z,100694.00
2023-01-31T21:15:58.812Z,100694.00
2023-01-31T21:18:29.267Z,100698.00
2023-01-31T21:20:57.614Z,100698.00
2023-01-31T21:23:25.610Z,100705.00
2023-01-31T21:25:53.701Z,100707.00
2023-01-31T21:28:21.333Z,100692.00
2023-01-31T21:31:00.170Z,100713.00
2023-01-31T21:33:28.315Z,100690.00
2023-01-31T21:35:58.098Z,100702.00
2023-01-31T21:38:26.302Z,100692.00
2023-01-31T21:41:14.013Z,100704.00
2023-01-31T21:43:41.028Z,100700.00
2023-01-31T21:46:10.475Z,100696.00
2023-01-31T21:48:38.666Z,100700.00
2023-01-31T21:51:08.237Z,100709.00
2023-01-31T21:53:36.197Z,100701.00
2023-01-31T21:56:04.247Z,100705.00
2023-01-31T21:58:32.538Z,100677.00
2023-01-31T22:01:04.716Z,100692.00
2023-01-31T22:03:34.817Z,100698.00
2023-01-31T22:06:03.390Z,100693.00
2023-01-31T22:08:31.564Z,100700.00
2023-01-31T22:11:01.257Z,100710.00
2023-01-31T22:13:29.015Z,100699.00
2023-01-31T22:16:00.368Z,100707.00
2023-01-31T22:18:29.203Z,100703.00
2023-01-31T22:21:06.001Z,100688.00
2023-01-31T22:23:34.505Z,100692.00
2023-01-31T22:26:07.059Z,100689.00
2023-01-31T22:28:35.416Z,100689.00
2023-01-31T22:31:03.964Z,100712.00
2023-01-31T22:33:32.282Z,100706.00
2023-01-31T22:36:00.514Z,100699.00
2023-01-31T22:38:29.719Z,100688.00
2023-01-31T22:40:58.394Z,100718.00
2023-01-31T22:43:27.027Z,100694.00
2023-01-31T22:45:58.252Z,100695.00
2023-01-31T22:48:27.261Z,100693.00
2023-01-31T22:50:56.120Z,100693.00
2023-01-31T22:53:24.142Z,100685.00
2023-01-31T22:55:53.427Z,100673.00
2023-01-31T22:58:21.939Z,100686.00
2023-01-31T23:00:49.891Z,100685.00
2023-01-31T23:03:17.592Z,100684.00
2023-01-31T23:05:45.684Z,100687.00
2023-01-31T23:08:14.373Z,100687.00
2023-01-31T23:10:43.140Z,100687.00
2023-01-31T23:13:12.591Z,100676.00
2023-01-31T23:15:41.246Z,100676.00
2023-01-31T23:18:09.219Z,100685.00
2023-01-31T23:20:36.942Z,100688.00
2023-01-31T23:23:04.751Z,100676.00
2023-01-31T23:25:32.625Z,100674.00
2023-01-31T23:28:02.297Z,100679.00
2023-01-31T23:30:31.509Z,100664.00
2023-01-31T23:32:59.445Z,100672.00
2023-01-31T23:35:27.301Z,100675.00
2023-01-31T23:37:55.017Z,100682.00
2023-01-31T23:40:23.151Z,100668.00
2023-01-31T23:42:51.205Z,100661.00
2023-01-31T23:45:18.960Z,100674.00
2023-01-31T23:47:50.362Z,100665.00
2023-01-31T23:50:18.727Z,100673.00
2023-01-31T23:52:46.609Z,100673.00
2023-01-31T23:55:14.389Z,100682.00
2023-01-31T23:57:42.318Z,100678.00
